EFKK

Kruunupyy Airport

Kokkola / Kruunupyy, Finland
METAR EFKK 251450Z AUTO 23012KT 180V270 9999 FEW025 BKN050 BKN065 10/04 Q1012
Observed Flight Rules
Sep-25 @ 14:50 UTC (15 minutes ago) Visual Flight Rules
Wind Visibility Clouds
230° at 12 knots 10,000+ meters
  • Few at 2,500' AGL
  • Broken at 5,000' AGL
  • Broken at 6,500' AGL
Temperatures Readings
Current 10°C / 50°F
Dewpoint 4°C / 39°F
Humidity 67%
Altimeter 29.88" Hg
Pressure 1012 hPa
Elevation 25
METAR EFKK 251450Z AUTO 23012KT 180V270 9999 FEW025 BKN050 BKN065 10/04 Q1012
Observed Flight Rules
Sep-25 @ 14:50 UTC
(15 minutes ago)
VFR
Wind Visibility
230° at 12 knots 10,000+ meters
Clouds
  • Few at 2,500' AGL
  • Broken at 5,000' AGL
  • Broken at 6,500' AGL
Temperature Dewpoint
10°C / 50°F 4°C / 39°F
Humidity Altimeter Pressure
67% 29.88" Hg 1012 hPa